createdAt,value
2022-12-22T00:02:45.113Z,16.40
2022-12-22T00:05:34.311Z,14.30
2022-12-22T00:08:21.431Z,15.10
2022-12-22T00:11:08.644Z,13.70
2022-12-22T00:13:55.655Z,15.30
2022-12-22T00:22:20.178Z,15.20
2022-12-22T00:25:07.197Z,13.30
2022-12-22T00:27:54.308Z,15.40
2022-12-22T00:30:44.040Z,14.20
2022-12-22T00:33:33.057Z,13.60
2022-12-22T00:36:21.397Z,12.90
2022-12-22T00:39:08.104Z,12.40
2022-12-22T00:41:55.432Z,14.30
2022-12-22T00:47:32.344Z,11.60
2022-12-22T00:50:19.748Z,11.30
2022-12-22T00:53:06.500Z,11.90
2022-12-22T00:55:53.168Z,10.40
2022-12-22T00:58:39.969Z,11.90
2022-12-22T01:01:27.731Z,10.60
2022-12-22T01:04:14.616Z,11.00
2022-12-22T01:07:01.842Z,12.90
2022-12-22T01:09:48.437Z,12.10
2022-12-22T01:12:42.930Z,11.00
2022-12-22T01:15:34.943Z,11.80
2022-12-22T01:18:21.796Z,10.20
2022-12-22T01:21:08.991Z,11.10
2022-12-22T01:23:56.269Z,11.70
2022-12-22T01:26:42.913Z,10.90
2022-12-22T01:32:16.225Z,9.30
2022-12-22T01:35:03.140Z,11.00
2022-12-22T01:37:50.183Z,12.10
2022-12-22T01:40:41.696Z,11.10
2022-12-22T01:43:48.440Z,10.60
2022-12-22T01:46:39.563Z,10.00
2022-12-22T01:49:27.231Z,10.30
2022-12-22T01:52:15.094Z,10.60
2022-12-22T01:55:02.528Z,10.30
2022-12-22T01:57:50.176Z,11.90
2022-12-22T02:00:37.072Z,10.80
2022-12-22T02:03:33.117Z,9.80
2022-12-22T02:06:29.447Z,10.00
2022-12-22T02:09:38.395Z,10.90
2022-12-22T02:12:47.609Z,8.70
2022-12-22T02:16:03.239Z,9.90
2022-12-22T02:18:53.240Z,9.70
2022-12-22T02:21:41.319Z,10.20
2022-12-22T02:24:28.247Z,11.00
2022-12-22T02:27:17.226Z,9.90
2022-12-22T02:30:08.902Z,9.60
2022-12-22T02:32:59.851Z,10.80
2022-12-22T02:36:02.831Z,11.00
2022-12-22T02:39:08.153Z,9.90
2022-12-22T02:42:10.740Z,10.40
2022-12-22T02:45:12.619Z,11.60
2022-12-22T02:48:02.392Z,9.20
2022-12-22T02:50:51.639Z,9.50
2022-12-22T02:53:39.458Z,9.80
2022-12-22T02:56:27.732Z,8.90
2022-12-22T02:59:14.529Z,9.20
2022-12-22T03:02:02.476Z,9.60
2022-12-22T03:04:49.542Z,11.10
2022-12-22T03:07:35.972Z,12.50
2022-12-22T03:10:22.799Z,12.40
2022-12-22T03:13:09.498Z,10.40
2022-12-22T03:15:56.104Z,9.00
2022-12-22T03:18:43.012Z,9.10
2022-12-22T03:21:29.941Z,10.20
2022-12-22T03:24:16.339Z,9.80
2022-12-22T03:26:44.414Z,10.00
2022-12-22T03:29:12.263Z,10.10
2022-12-22T03:31:40.169Z,11.00
2022-12-22T03:34:08.820Z,13.50
2022-12-22T03:36:36.751Z,10.60
2022-12-22T03:39:04.543Z,11.90
2022-12-22T03:41:51.267Z,11.00
2022-12-22T03:44:37.752Z,11.90
2022-12-22T03:47:05.759Z,10.70
2022-12-22T03:49:33.690Z,11.20
2022-12-22T03:52:01.866Z,12.50
2022-12-22T03:54:29.751Z,11.40
2022-12-22T03:56:57.796Z,12.60
2022-12-22T03:59:25.771Z,12.20
2022-12-22T04:01:54.551Z,11.30
2022-12-22T04:04:24.131Z,10.70
2022-12-22T04:06:52.941Z,10.80
2022-12-22T04:09:22.592Z,11.70
2022-12-22T04:12:09.677Z,10.60
2022-12-22T04:14:38.030Z,10.00
2022-12-22T04:17:06.731Z,11.40
2022-12-22T04:19:34.493Z,10.40
2022-12-22T04:22:02.461Z,12.30
2022-12-22T04:24:30.530Z,9.60
2022-12-22T04:26:58.668Z,10.10
2022-12-22T04:29:26.897Z,10.60
2022-12-22T04:31:54.923Z,12.20
2022-12-22T04:34:22.924Z,10.80
2022-12-22T04:36:50.669Z,9.40
2022-12-22T04:39:18.416Z,11.80
2022-12-22T04:41:46.189Z,10.80
2022-12-22T04:44:13.990Z,10.80
2022-12-22T04:46:41.837Z,11.80
2022-12-22T04:49:10.946Z,10.80
2022-12-22T04:51:39.102Z,10.90
2022-12-22T04:54:06.870Z,11.70
2022-12-22T04:56:34.741Z,10.60
2022-12-22T04:59:02.888Z,11.10
2022-12-22T05:01:30.963Z,11.70
2022-12-22T05:03:59.556Z,13.20
2022-12-22T05:06:27.270Z,12.50
2022-12-22T05:08:55.201Z,11.70
2022-12-22T05:11:23.178Z,10.30
2022-12-22T05:13:51.056Z,11.60
2022-12-22T05:16:18.882Z,11.60
2022-12-22T05:18:46.772Z,10.40
2022-12-22T05:21:16.740Z,10.10
2022-12-22T05:23:44.755Z,10.50
2022-12-22T05:26:14.874Z,10.40
2022-12-22T05:28:43.437Z,10.40
2022-12-22T05:31:14.755Z,10.60
2022-12-22T05:33:42.685Z,10.20
2022-12-22T05:36:10.757Z,10.90
2022-12-22T05:38:38.681Z,10.50
2022-12-22T05:41:07.270Z,10.50
2022-12-22T05:43:35.643Z,11.50
2022-12-22T05:46:07.886Z,11.70
2022-12-22T05:48:38.968Z,12.50
2022-12-22T05:51:08.615Z,12.50
2022-12-22T05:53:37.351Z,11.50
2022-12-22T05:56:05.911Z,11.60
2022-12-22T05:58:34.623Z,12.00
2022-12-22T06:01:03.356Z,12.20
2022-12-22T06:03:31.664Z,12.30
2022-12-22T06:05:59.780Z,11.20
2022-12-22T06:08:27.940Z,12.40
2022-12-22T06:10:56.472Z,12.00
2022-12-22T06:13:25.200Z,12.70
2022-12-22T06:15:53.006Z,12.00
2022-12-22T06:18:21.592Z,11.60
2022-12-22T06:20:51.853Z,12.60
2022-12-22T06:23:20.293Z,12.30
2022-12-22T06:25:58.134Z,13.40
2022-12-22T06:28:26.621Z,11.10
2022-12-22T06:30:55.138Z,11.50
2022-12-22T06:33:23.495Z,11.80
2022-12-22T06:35:57.923Z,11.80
2022-12-22T06:38:28.371Z,11.70
2022-12-22T06:40:56.698Z,11.90
2022-12-22T06:43:24.879Z,12.90
2022-12-22T06:45:53.527Z,13.20
2022-12-22T06:48:21.628Z,12.50
2022-12-22T06:50:50.205Z,12.30
2022-12-22T06:53:18.568Z,12.40
2022-12-22T06:55:46.515Z,12.70
2022-12-22T06:58:14.571Z,12.10
2022-12-22T07:00:43.714Z,12.60
2022-12-22T07:03:11.571Z,12.10
2022-12-22T07:05:39.960Z,13.30
2022-12-22T07:08:09.345Z,12.40
2022-12-22T07:10:56.387Z,12.50
2022-12-22T07:13:27.942Z,12.50
2022-12-22T07:16:00.544Z,13.10
2022-12-22T07:18:30.121Z,11.90
2022-12-22T07:20:58.697Z,13.10
2022-12-22T07:23:26.923Z,14.00
2022-12-22T07:25:55.446Z,14.30
2022-12-22T07:28:23.735Z,14.90
2022-12-22T07:30:52.131Z,15.10
2022-12-22T07:33:20.219Z,13.40
2022-12-22T07:35:48.376Z,13.00
2022-12-22T07:38:16.553Z,13.40
2022-12-22T07:40:51.584Z,15.30
2022-12-22T07:43:20.043Z,14.80
2022-12-22T07:45:48.205Z,17.60
2022-12-22T07:48:34.703Z,17.20
2022-12-22T07:51:04.793Z,14.60
2022-12-22T07:53:33.989Z,16.30
2022-12-22T07:56:03.095Z,16.10
2022-12-22T07:58:31.515Z,17.10
2022-12-22T08:01:00.182Z,17.50
2022-12-22T08:03:28.326Z,17.60
2022-12-22T08:05:56.321Z,16.20
2022-12-22T08:08:24.167Z,17.80
2022-12-22T08:10:52.260Z,18.50
2022-12-22T08:13:20.906Z,19.70
2022-12-22T08:15:48.938Z,17.40
2022-12-22T08:18:17.053Z,19.70
2022-12-22T08:20:51.617Z,24.60
2022-12-22T08:23:19.467Z,21.30
2022-12-22T08:25:48.876Z,19.60
2022-12-22T08:28:18.182Z,19.10
2022-12-22T08:30:46.156Z,19.70
2022-12-22T08:33:14.512Z,19.70
2022-12-22T08:35:42.934Z,21.50
2022-12-22T08:38:12.963Z,19.80
2022-12-22T08:40:43.335Z,22.50
2022-12-22T08:43:12.022Z,19.60
2022-12-22T08:45:40.906Z,21.30
2022-12-22T08:48:11.844Z,22.10
2022-12-22T08:50:39.822Z,19.30
2022-12-22T08:53:18.831Z,21.70
2022-12-22T08:55:57.056Z,20.80
2022-12-22T08:58:25.340Z,21.30
2022-12-22T09:00:53.276Z,19.20
2022-12-22T09:03:21.664Z,20.30
2022-12-22T09:05:49.758Z,23.30
2022-12-22T09:08:17.497Z,18.90
2022-12-22T09:10:46.185Z,21.70
2022-12-22T09:13:14.051Z,19.00
2022-12-22T09:15:42.021Z,18.10
2022-12-22T09:18:10.193Z,17.10
2022-12-22T09:20:37.990Z,17.80
2022-12-22T09:23:05.940Z,17.80
2022-12-22T09:25:34.628Z,16.00
2022-12-22T09:28:02.516Z,14.80
2022-12-22T09:30:30.447Z,14.00
2022-12-22T09:32:58.449Z,16.30
2022-12-22T09:35:26.281Z,14.90
2022-12-22T09:37:54.322Z,13.50
2022-12-22T09:40:23.027Z,14.50
2022-12-22T09:42:53.461Z,13.50
2022-12-22T09:45:21.511Z,13.90
2022-12-22T09:47:56.653Z,13.00
2022-12-22T09:50:25.789Z,13.20
2022-12-22T09:52:55.261Z,14.70
2022-12-22T09:55:26.264Z,14.10
2022-12-22T09:57:54.803Z,14.00
2022-12-22T10:00:28.480Z,14.10
2022-12-22T10:03:16.915Z,12.40
2022-12-22T10:05:54.432Z,14.10
2022-12-22T10:08:27.511Z,13.10
2022-12-22T10:10:56.501Z,13.60
2022-12-22T10:13:24.475Z,13.00
2022-12-22T10:15:53.274Z,13.10
2022-12-22T10:18:23.375Z,14.00
2022-12-22T10:21:23.995Z,13.30
2022-12-22T10:23:52.393Z,12.00
2022-12-22T10:26:28.743Z,13.10
2022-12-22T10:29:10.517Z,13.00
2022-12-22T10:31:56.689Z,12.30
2022-12-22T10:34:25.023Z,12.80
2022-12-22T10:36:53.906Z,13.20
2022-12-22T10:39:29.918Z,17.30
2022-12-22T10:42:01.210Z,15.00
2022-12-22T10:44:30.511Z,16.60
2022-12-22T10:47:00.133Z,12.20
2022-12-22T10:49:27.988Z,13.40
2022-12-22T10:52:13.326Z,12.00
2022-12-22T10:54:42.856Z,13.30
2022-12-22T10:57:10.564Z,11.30
2022-12-22T10:59:48.316Z,13.20
2022-12-22T11:02:19.067Z,13.80
2022-12-22T11:04:47.740Z,12.80
2022-12-22T11:07:16.417Z,12.50
2022-12-22T11:09:44.532Z,13.90
2022-12-22T11:12:28.613Z,10.50
2022-12-22T11:15:21.976Z,11.10
2022-12-22T11:18:12.398Z,10.70
2022-12-22T11:20:55.265Z,10.50
2022-12-22T11:23:26.047Z,10.30
2022-12-22T11:26:02.563Z,11.60
2022-12-22T11:28:48.915Z,15.90
2022-12-22T11:31:35.721Z,21.80
2022-12-22T11:36:53.304Z,27.10
2022-12-22T11:39:33.016Z,15.10
2022-12-22T11:42:19.921Z,13.80
2022-12-22T11:44:54.155Z,12.40
2022-12-22T11:47:32.096Z,12.30
2022-12-22T11:50:58.846Z,11.50
2022-12-22T11:53:07.679Z,12.40
2022-12-22T11:55:50.883Z,19.50
2022-12-22T11:58:21.972Z,19.40
2022-12-22T12:01:16.236Z,22.10
2022-12-22T12:04:08.264Z,22.50
2022-12-22T12:06:59.719Z,20.40
2022-12-22T12:09:28.697Z,20.10
2022-12-22T12:12:16.736Z,17.40
2022-12-22T12:15:11.324Z,18.10
2022-12-22T12:17:51.599Z,17.20
2022-12-22T12:20:26.785Z,18.30
2022-12-22T12:23:18.288Z,16.40
2022-12-22T12:25:56.752Z,19.80
2022-12-22T12:28:32.299Z,17.30
2022-12-22T12:31:01.172Z,27.00
2022-12-22T12:33:44.312Z,21.40
2022-12-22T12:36:20.683Z,12.90
2022-12-22T12:39:07.565Z,20.80
2022-12-22T12:41:39.608Z,14.20
2022-12-22T12:44:10.968Z,16.30
2022-12-22T12:46:45.041Z,13.20
2022-12-22T12:49:42.577Z,12.90
2022-12-22T12:52:11.074Z,12.00
2022-12-22T12:54:42.822Z,9.90
2022-12-22T12:57:12.689Z,9.90
2022-12-22T12:59:40.451Z,9.10
2022-12-22T13:02:27.409Z,9.00
2022-12-22T13:05:08.158Z,7.50
2022-12-22T13:07:55.589Z,7.00
2022-12-22T13:10:25.320Z,5.90
2022-12-22T13:12:54.223Z,7.00
2022-12-22T13:15:29.330Z,6.10
2022-12-22T13:17:57.928Z,5.80
2022-12-22T13:20:31.812Z,6.70
2022-12-22T13:23:00.823Z,7.00
2022-12-22T13:25:53.166Z,5.00
2022-12-22T13:28:23.362Z,5.10
2022-12-22T13:30:59.668Z,6.30
2022-12-22T13:33:30.770Z,6.40
2022-12-22T13:35:59.557Z,5.50
2022-12-22T13:38:34.886Z,5.50
2022-12-22T13:41:04.611Z,5.80
2022-12-22T13:43:33.306Z,4.90
2022-12-22T13:46:02.516Z,6.90
2022-12-22T13:48:57.186Z,5.60
2022-12-22T13:51:27.085Z,5.70
2022-12-22T13:54:12.715Z,5.40
2022-12-22T13:56:40.963Z,5.30
2022-12-22T13:59:35.544Z,6.30
2022-12-22T14:02:14.011Z,5.40
2022-12-22T14:04:44.029Z,7.70
2022-12-22T14:07:13.145Z,6.60
2022-12-22T14:09:51.290Z,6.60
2022-12-22T14:12:25.958Z,5.60
2022-12-22T14:14:54.607Z,7.60
2022-12-22T14:17:27.898Z,5.90
2022-12-22T14:19:57.877Z,7.30
2022-12-22T14:22:28.422Z,7.90
2022-12-22T14:25:03.557Z,8.70
2022-12-22T14:27:38.692Z,13.00
2022-12-22T14:30:15.818Z,11.50
2022-12-22T14:32:52.443Z,7.70
2022-12-22T14:35:23.802Z,7.70
2022-12-22T14:37:53.110Z,8.60
2022-12-22T14:40:31.883Z,7.50
2022-12-22T14:43:01.113Z,7.70
2022-12-22T14:45:29.163Z,7.40
2022-12-22T14:47:57.329Z,8.50
2022-12-22T14:50:29.119Z,10.30
2022-12-22T14:52:58.206Z,8.30
2022-12-22T14:55:29.162Z,11.00
2022-12-22T14:58:03.123Z,8.70
2022-12-22T15:00:35.870Z,7.00
2022-12-22T15:03:05.630Z,9.50
2022-12-22T15:05:38.435Z,8.70
2022-12-22T15:08:09.360Z,17.10
2022-12-22T15:10:42.109Z,10.70
2022-12-22T15:13:19.122Z,9.50
2022-12-22T15:18:15.406Z,9.70
2022-12-22T15:20:43.748Z,8.90
2022-12-22T15:23:17.231Z,7.30
2022-12-22T15:25:45.861Z,9.60
2022-12-22T15:28:14.409Z,7.50
2022-12-22T15:30:42.698Z,6.20
2022-12-22T15:33:12.290Z,6.60
2022-12-22T15:35:40.468Z,8.10
2022-12-22T15:38:16.519Z,18.30
2022-12-22T15:40:44.755Z,19.10
2022-12-22T15:43:36.539Z,37.70
2022-12-22T15:46:02.194Z,30.80
2022-12-22T15:48:32.211Z,12.30
2022-12-22T15:51:00.841Z,9.50
2022-12-22T15:53:29.391Z,6.90
2022-12-22T15:55:58.766Z,8.00
2022-12-22T15:58:31.342Z,7.40
2022-12-22T16:00:59.502Z,10.70
2022-12-22T16:03:28.159Z,7.60
2022-12-22T16:05:57.555Z,5.50
2022-12-22T16:08:36.485Z,6.50
2022-12-22T16:11:06.796Z,7.10
2022-12-22T16:13:36.308Z,7.30
2022-12-22T16:16:04.722Z,6.30
2022-12-22T16:18:32.959Z,6.80
2022-12-22T16:21:09.215Z,6.90
2022-12-22T16:23:40.041Z,6.60
2022-12-22T16:26:08.037Z,7.00
2022-12-22T16:28:36.305Z,7.10
2022-12-22T16:31:04.497Z,7.60
2022-12-22T16:33:33.155Z,20.50
2022-12-22T16:36:01.430Z,18.50
2022-12-22T16:38:29.911Z,10.40
2022-12-22T16:40:58.097Z,8.70
2022-12-22T16:46:17.328Z,8.10
2022-12-22T16:48:46.936Z,9.00
2022-12-22T16:51:16.635Z,8.30
2022-12-22T16:53:44.970Z,9.80
2022-12-22T16:56:15.183Z,8.40
2022-12-22T16:58:43.248Z,8.10
2022-12-22T17:01:19.071Z,8.60
2022-12-22T17:03:47.539Z,10.30
2022-12-22T17:06:16.937Z,11.40
2022-12-22T17:08:46.667Z,9.00
2022-12-22T17:11:20.613Z,12.70
2022-12-22T17:13:50.516Z,11.90
2022-12-22T17:16:20.161Z,8.20
2022-12-22T17:18:48.809Z,9.60
2022-12-22T17:21:18.152Z,9.20
2022-12-22T17:23:56.317Z,10.60
2022-12-22T17:26:25.730Z,9.30
2022-12-22T17:28:53.783Z,10.30
2022-12-22T17:31:25.025Z,13.50
2022-12-22T17:33:54.048Z,10.20
2022-12-22T17:36:24.723Z,25.40
2022-12-22T17:38:53.804Z,23.60
2022-12-22T17:41:21.881Z,20.60
2022-12-22T17:43:49.883Z,14.40
2022-12-22T17:46:19.008Z,12.50
2022-12-22T17:48:47.772Z,12.60
2022-12-22T17:51:21.208Z,13.20
2022-12-22T17:53:49.237Z,14.70
2022-12-22T17:56:19.262Z,33.50
2022-12-22T17:58:47.190Z,46.50
2022-12-22T18:01:21.615Z,93.00
2022-12-22T18:03:49.757Z,96.00
2022-12-22T18:06:18.759Z,109.70
2022-12-22T18:08:47.007Z,66.10
2022-12-22T18:11:14.864Z,158.70
2022-12-22T18:13:42.929Z,100.30
2022-12-22T18:16:15.268Z,83.80
2022-12-22T18:18:43.818Z,56.00
2022-12-22T18:21:23.568Z,30.70
2022-12-22T18:23:52.102Z,36.70
2022-12-22T18:26:22.325Z,49.30
2022-12-22T18:28:50.800Z,42.60
2022-12-22T18:31:19.426Z,83.20
2022-12-22T18:33:47.641Z,24.50
2022-12-22T18:36:17.659Z,28.70
2022-12-22T18:38:46.549Z,22.90
2022-12-22T18:41:19.801Z,24.60
2022-12-22T18:43:48.834Z,15.90
2022-12-22T18:46:17.171Z,26.10
2022-12-22T18:48:46.407Z,34.30
2022-12-22T18:51:21.998Z,28.40
2022-12-22T18:53:53.004Z,31.90
2022-12-22T18:56:24.585Z,19.30
2022-12-22T18:58:54.150Z,21.90
2022-12-22T19:01:24.332Z,31.90
2022-12-22T19:03:55.675Z,26.60
2022-12-22T19:06:24.432Z,19.70
2022-12-22T19:08:53.964Z,20.00
2022-12-22T19:11:28.500Z,22.00
2022-12-22T19:13:58.762Z,19.50
2022-12-22T19:16:26.977Z,22.90
2022-12-22T19:18:57.239Z,32.90
2022-12-22T19:21:25.092Z,31.30
2022-12-22T19:23:54.198Z,19.20
2022-12-22T19:26:26.078Z,31.60
2022-12-22T19:29:00.757Z,29.70
2022-12-22T19:31:30.435Z,26.30
2022-12-22T19:34:02.860Z,25.80
2022-12-22T19:36:32.216Z,62.10
2022-12-22T19:39:04.736Z,40.10
2022-12-22T19:41:53.221Z,30.90
2022-12-22T19:44:23.472Z,24.30
2022-12-22T19:46:57.057Z,32.20
2022-12-22T19:49:30.024Z,20.20
2022-12-22T19:51:58.411Z,60.70
2022-12-22T19:54:28.089Z,44.40
2022-12-22T19:56:56.576Z,44.60
2022-12-22T19:59:37.694Z,24.90
2022-12-22T20:02:27.676Z,33.70
2022-12-22T20:04:58.568Z,21.20
2022-12-22T20:07:28.120Z,19.80
2022-12-22T20:09:56.145Z,17.90
2022-12-22T20:12:27.203Z,19.60
2022-12-22T20:14:55.781Z,17.10
2022-12-22T20:17:23.852Z,15.30
2022-12-22T20:19:52.030Z,17.30
2022-12-22T20:22:21.321Z,14.60
2022-12-22T20:24:50.902Z,12.50
2022-12-22T20:27:22.999Z,13.50
2022-12-22T20:29:51.159Z,12.00
2022-12-22T20:32:27.136Z,13.70
2022-12-22T20:34:56.407Z,18.10
2022-12-22T20:37:25.302Z,13.30
2022-12-22T20:39:53.264Z,19.70
2022-12-22T20:42:23.602Z,14.40
2022-12-22T20:45:02.258Z,19.30
2022-12-22T20:47:34.072Z,21.90
2022-12-22T20:50:03.780Z,18.60
2022-12-22T20:52:32.156Z,18.80
2022-12-22T20:55:01.343Z,19.50
2022-12-22T20:57:29.521Z,17.10
2022-12-22T20:59:58.843Z,20.30
2022-12-22T21:02:28.823Z,20.20
2022-12-22T21:04:57.432Z,20.10
2022-12-22T21:07:25.505Z,18.90
2022-12-22T21:09:54.037Z,17.80
2022-12-22T21:12:23.410Z,18.50
2022-12-22T21:14:52.001Z,14.70
2022-12-22T21:17:20.295Z,20.80
2022-12-22T21:19:48.932Z,24.50
2022-12-22T21:22:20.696Z,25.30
2022-12-22T21:24:49.160Z,24.50
2022-12-22T21:27:21.135Z,23.40
2022-12-22T21:29:49.604Z,22.50
2022-12-22T21:32:21.047Z,23.50
2022-12-22T21:34:49.933Z,21.00
2022-12-22T21:37:19.148Z,20.90
2022-12-22T21:39:47.712Z,35.20
2022-12-22T21:42:16.817Z,32.90
2022-12-22T21:44:45.515Z,27.00
2022-12-22T21:47:14.493Z,21.00
2022-12-22T21:49:42.514Z,24.50
2022-12-22T21:52:10.637Z,23.00
2022-12-22T21:54:40.137Z,22.60
2022-12-22T21:57:11.288Z,21.70
2022-12-22T21:59:39.785Z,19.90
2022-12-22T22:02:15.635Z,19.70
2022-12-22T22:04:51.813Z,21.90
2022-12-22T22:07:23.019Z,18.80
2022-12-22T22:09:51.697Z,19.90
2022-12-22T22:12:37.704Z,20.10
2022-12-22T22:15:08.740Z,19.60
2022-12-22T22:17:37.943Z,19.50
2022-12-22T22:20:09.134Z,20.80
2022-12-22T22:22:37.236Z,21.80
2022-12-22T22:25:05.615Z,17.40
2022-12-22T22:27:37.168Z,19.60
2022-12-22T22:30:06.263Z,17.60
2022-12-22T22:32:34.856Z,19.70
2022-12-22T22:35:03.185Z,18.60
2022-12-22T22:37:32.353Z,17.10
2022-12-22T22:40:00.287Z,16.40
2022-12-22T22:42:28.559Z,16.30
2022-12-22T22:44:56.635Z,17.00
2022-12-22T22:47:24.528Z,16.70
2022-12-22T22:49:52.669Z,17.40
2022-12-22T22:52:20.543Z,17.80
2022-12-22T22:54:48.410Z,16.80
2022-12-22T22:57:16.479Z,17.00
2022-12-22T22:59:44.335Z,16.80
2022-12-22T23:02:14.883Z,17.00
2022-12-22T23:04:43.445Z,16.40
2022-12-22T23:07:11.492Z,15.70
2022-12-22T23:09:39.591Z,17.20
2022-12-22T23:12:07.973Z,18.60
2022-12-22T23:14:35.818Z,17.70
2022-12-22T23:17:03.906Z,18.00
2022-12-22T23:19:32.221Z,19.50
2022-12-22T23:22:00.019Z,19.60
2022-12-22T23:24:28.013Z,20.50
2022-12-22T23:26:56.082Z,19.60
2022-12-22T23:29:24.047Z,17.70
2022-12-22T23:31:52.108Z,18.60
2022-12-22T23:34:20.803Z,16.70
2022-12-22T23:36:48.801Z,20.60
2022-12-22T23:39:17.345Z,19.90
2022-12-22T23:41:45.309Z,21.80
2022-12-22T23:44:13.601Z,19.30
2022-12-22T23:46:41.597Z,21.10
2022-12-22T23:49:11.008Z,21.60
2022-12-22T23:51:38.831Z,23.40
2022-12-22T23:54:07.624Z,36.70
2022-12-22T23:56:35.628Z,26.40
2022-12-22T23:59:03.558Z,21.10
